Terminal Aerodrome Forecast
Issued by NWS Austin/San Antonio, TX

Home | Current Version | Previous Version | Text Only | Print | Product List | Glossary On
Versions: 1 2 3 4 5 6 7 8 9 10 11 12 13 14 15 16 17 18 19 20 21 22 23 24 25 26
000
FTUS44 KEWX 041731
TAFSAT
TAF
KSAT 041731Z 0418/0524 17007KT 2SM -DZ BR OVC005
      TEMPO 0418/0422 1SM -DZ BR OVC003
     FM042200 07008KT P6SM OVC008
     FM050200 03020G30KT P6SM OVC015
      TEMPO 0502/0506 4SM SHRA
     FM050600 01025G35KT 5SM -RA OVC015
     FM051000 01025G35KT P6SM OVC015 PROB30 0511/0515 5SM -FZRA
     FM052000 01015KT P6SM OVC100=

USA.gov is the U.S. government's official web portal to all federal, state and local government web resources and services.